Mary Alice — WCX9570 — position and weather

sailwx.info

Track history (hours):
 
Tides and Currents Weather Stations Pressure Air Temp Water Temp Dewpoint Dewpoint Depression Visibility Wind Speed Wind Dir Waves Ship Positions

Mary Alice

Owner: Donjon Marine Co., Inc., HILLSIDE, NJ. More information available from US FCC via Universal Licensing System and Coast Guard Vessel Documentation Center.

Last reported at 2018-Jun-22 13:00 UTC. Time now 2018-Jun-22 13:17 UTC.
Position N 40°42' W 074°09'.

Length 21 m; draft 4.8 m.

Type: Towing. MMSI: 366744020.

Date/timePositionNaut miles runAvg speedWind from/ knotsBaromVisibWave heightAir tempDewpointWater temp
2018-Jun-22 13:00N 40°42' W 074°09'0 0.4
2018-Jun-22 12:30N 40°42' W 074°09'1 1.2
2018-Jun-22 12:00N 40°42' W 074°08'0 0.0
2018-Jun-22 11:30N 40°42' W 074°08'0 0.2
2018-Jun-22 11:00N 40°41' W 074°08'1 1.7
2018-Jun-22 10:30N 40°42' W 074°09'0 0.0
2018-Jun-22 10:00N 40°42' W 074°09'0 0.0
2018-Jun-22 09:30N 40°42' W 074°09'0 0.0
2018-Jun-22 09:00N 40°42' W 074°09'0 0.0
2018-Jun-22 08:30N 40°42' W 074°09'0 0.0
2018-Jun-22 08:00N 40°42' W 074°09'0 0.0
2018-Jun-22 07:30N 40°42' W 074°09'0 0.0
2018-Jun-22 07:00N 40°42' W 074°09'0 0.0
2018-Jun-22 06:30N 40°42' W 074°09'0 0.0
2018-Jun-22 06:00N 40°42' W 074°09'0 0.0
2018-Jun-22 05:30N 40°42' W 074°09'0 0.0
2018-Jun-22 04:59N 40°42' W 074°09'0 0.0
2018-Jun-22 04:29N 40°42' W 074°09'0 0.0
2018-Jun-22 04:00N 40°42' W 074°09'0 0.0
2018-Jun-22 03:30N 40°42' W 074°09'0 0.0
2018-Jun-22 03:00N 40°42' W 074°09'0 0.0
2018-Jun-22 02:30N 40°42' W 074°09'0 0.0
2018-Jun-22 02:00N 40°42' W 074°09'0 0.0
2018-Jun-22 01:30N 40°42' W 074°09'0 0.1
2018-Jun-22 01:00N 40°42' W 074°09'0 0.1
2018-Jun-22 00:23N 40°42' W 074°09'0 0.0
2018-Jun-22 00:00N 40°42' W 074°09'0 0.0
2018-Jun-21 23:28N 40°42' W 074°09'0 0.0
2018-Jun-21 22:59N 40°42' W 074°09'0 0.0
2018-Jun-21 22:30N 40°42' W 074°09'0 0.0
2018-Jun-21 22:00N 40°42' W 074°09'0 0.0
2018-Jun-21 21:30N 40°42' W 074°09'0 0.0
2018-Jun-21 21:00N 40°42' W 074°09'0 0.0
2018-Jun-21 20:30N 40°42' W 074°09'0 0.0
2018-Jun-21 20:00N 40°42' W 074°09'0 0.0
2018-Jun-21 19:30N 40°42' W 074°09'0 0.0
2018-Jun-21 19:00N 40°42' W 074°09'0 0.0
2018-Jun-21 18:30N 40°42' W 074°09'0 0.0
2018-Jun-21 18:00N 40°42' W 074°09'0 0.0
2018-Jun-21 17:30N 40°42' W 074°09'0 0.0
2018-Jun-21 16:59N 40°42' W 074°09'0 0.0
2018-Jun-21 16:30N 40°42' W 074°09'0 0.0
2018-Jun-21 16:00N 40°42' W 074°09'0 0.0
2018-Jun-21 15:25N 40°42' W 074°09'0 0.0
2018-Jun-21 15:00N 40°42' W 074°09'0 0.0
2018-Jun-21 14:21N 40°42' W 074°09'0 0.0
2018-Jun-21 13:59N 40°42' W 074°09'0 0.0
2018-Jun-21 13:30N 40°42' W 074°09'0 0.0
2018-Jun-21 12:53N 40°42' W 074°09'0 0.0
2018-Jun-21 12:30N 40°42' W 074°09'0 0.0
2018-Jun-21 12:00N 40°42' W 074°09'1 1.0
2018-Jun-21 11:29N 40°42' W 074°09'3 6.3
2018-Jun-21 11:00N 40°39' W 074°10'2 3.6
2018-Jun-21 10:30N 40°39' W 074°07'1 2.4
2018-Jun-21 10:00N 40°38' W 074°09'2 4.2
2018-Jun-21 09:30N 40°41' W 074°08'0 0.1
2018-Jun-21 09:00N 40°41' W 074°08'1 2.3
2018-Jun-21 08:30N 40°42' W 074°08'1 1.2
2018-Jun-21 08:00N 40°42' W 074°09'1 1.7
2018-Jun-21 07:30N 40°41' W 074°08'0 0.1
2018-Jun-21 07:00N 40°41' W 074°08'2 4.2
2018-Jun-21 06:30N 40°39' W 074°09'2 4.3
2018-Jun-21 06:00N 40°39' W 074°06'3 5.3
2018-Jun-21 05:29N 40°37' W 074°03'3 5.7
2018-Jun-21 05:00N 40°35' W 074°02'25 5.6
2018-Jun-21 00:31N 40°31' W 073°29'0 6.1
2018-Jun-21 00:30N 40°31' W 073°29'3 6.1
2018-Jun-20 23:59N 40°32' W 073°25'28 1.0
2018-Jun-19 21:18N 40°32' W 074°01'3 7.6
2018-Jun-19 20:56N 40°35' W 074°02'3 6.7
2018-Jun-19 20:30N 40°38' W 074°03'3 6.3
2018-Jun-19 20:00N 40°39' W 074°07'2 4.8
2018-Jun-19 19:30N 40°41' W 074°08'1 1.2
2018-Jun-19 19:00N 40°41' W 074°08'0 0.0
2018-Jun-19 18:30N 40°41' W 074°08'0 0.0
2018-Jun-19 18:00N 40°41' W 074°08'0 0.0
2018-Jun-19 17:30N 40°41' W 074°08'0 0.0
2018-Jun-19 17:00N 40°41' W 074°08'0 0.0
2018-Jun-19 16:30N 40°41' W 074°08'0 0.0
2018-Jun-19 16:00N 40°41' W 074°08'0 0.0
2018-Jun-19 15:30N 40°41' W 074°08'0 0.1
2018-Jun-19 15:00N 40°41' W 074°08'0 0.0
2018-Jun-19 14:30N 40°41' W 074°08'0 0.0
2018-Jun-19 13:55N 40°41' W 074°08'0 0.0
2018-Jun-19 13:29N 40°41' W 074°08'0 0.0
2018-Jun-19 13:00N 40°41' W 074°08'1 1.0
2018-Jun-19 12:27N 40°42' W 074°09'1 1.2
2018-Jun-19 12:00N 40°41' W 074°08'0 0.0
2018-Jun-19 11:30N 40°41' W 074°08'0 1.0
2018-Jun-19 11:00N 40°42' W 074°09'0 0.7
2018-Jun-19 10:30N 40°42' W 074°09'0 0.0
2018-Jun-19 09:58N 40°42' W 074°09'0 0.0
2018-Jun-19 09:29N 40°42' W 074°09'0 0.0
2018-Jun-19 09:00N 40°42' W 074°09'0 0.0
2018-Jun-19 08:30N 40°42' W 074°09'0 0.0
2018-Jun-19 08:00N 40°42' W 074°09'0 0.0
2018-Jun-19 07:30N 40°42' W 074°09'0 0.0
2018-Jun-19 07:00N 40°42' W 074°09'0 0.0
2018-Jun-19 06:30N 40°42' W 074°09'0 0.0
2018-Jun-19 06:00N 40°42' W 074°09'0 0.0
2018-Jun-19 05:30N 40°42' W 074°09'0 0.0
2018-Jun-19 05:00N 40°42' W 074°09'0 0.0
2018-Jun-19 04:30N 40°42' W 074°09'0 0.0
2018-Jun-19 04:00N 40°42' W 074°09'0 0.0
2018-Jun-19 03:30N 40°42' W 074°09'0 0.0
2018-Jun-19 03:00N 40°42' W 074°09'0 0.0
2018-Jun-19 02:24N 40°42' W 074°09'0 0.0
2018-Jun-19 01:24N 40°42' W 074°09'0 0.0
2018-Jun-19 01:00N 40°42' W 074°09'0 0.0
2018-Jun-19 00:29N 40°42' W 074°09'0 0.0
2018-Jun-18 23:59N 40°42' W 074°09'0 0.0
2018-Jun-18 23:30N 40°42' W 074°09'0 0.0
2018-Jun-18 23:00N 40°42' W 074°09'0 0.0
2018-Jun-18 22:20N 40°42' W 074°09'0 0.6
2018-Jun-18 22:00N 40°42' W 074°09'1 1.2
2018-Jun-18 21:26N 40°41' W 074°08'0 0.0
2018-Jun-18 21:00N 40°41' W 074°08'0 0.0
2018-Jun-18 20:28N 40°41' W 074°08'0 0.0
2018-Jun-18 20:00N 40°41' W 074°08'0 0.0
2018-Jun-18 19:30N 40°41' W 074°08'0 0.0
2018-Jun-18 18:58N 40°41' W 074°08'0 0.0
2018-Jun-18 18:30N 40°41' W 074°08'0 0.5
2018-Jun-18 18:00N 40°42' W 074°08'0 1.0
2018-Jun-18 17:30N 40°42' W 074°09'0 0.0
2018-Jun-18 16:58N 40°42' W 074°09'0 0.1
2018-Jun-18 16:30N 40°42' W 074°09'0 0.0
2018-Jun-18 16:00N 40°42' W 074°09'0 0.0
2018-Jun-18 15:30N 40°42' W 074°09'0 0.0
2018-Jun-18 14:58N 40°42' W 074°09'0 0.0
2018-Jun-18 14:08N 40°42' W 074°09'0 0.0
2018-Jun-18 12:53N 40°42' W 074°09'0 0.0
2018-Jun-18 12:25N 40°42' W 074°09'0 0.0
2018-Jun-18 12:00N 40°42' W 074°09'0 0.0
2018-Jun-18 11:20N 40°42' W 074°09'0 0.0
2018-Jun-18 10:53N 40°42' W 074°09'0 0.0
2018-Jun-18 10:24N 40°42' W 074°09'0 0.0
2018-Jun-18 10:00N 40°42' W 074°09'0 0.0
2018-Jun-18 09:31N 40°42' W 074°09'0 0.0
2018-Jun-18 08:49N 40°42' W 074°09'0 0.0
2018-Jun-18 08:29N 40°42' W 074°09'0 0.0
2018-Jun-18 08:00N 40°42' W 074°09'0 0.0
2018-Jun-18 07:30N 40°42' W 074°09'0 0.0
2018-Jun-18 06:59N 40°42' W 074°09'0 0.0
2018-Jun-18 06:29N 40°42' W 074°09'0 0.0
2018-Jun-18 05:59N 40°42' W 074°09'0 0.0
2018-Jun-18 05:29N 40°42' W 074°09'0 0.0
2018-Jun-18 05:00N 40°42' W 074°09'0 0.0
2018-Jun-18 04:28N 40°42' W 074°09'0 0.0
2018-Jun-18 03:59N 40°42' W 074°09'0 0.0
2018-Jun-18 03:28N 40°42' W 074°09'0 0.0
2018-Jun-18 03:00N 40°42' W 074°09'0 0.0
2018-Jun-18 02:27N 40°42' W 074°09'0 0.0
2018-Jun-18 02:00N 40°42' W 074°09'1 1.7
2018-Jun-18 01:29N 40°41' W 074°08'0 0.9
2018-Jun-18 01:00N 40°41' W 074°08'0 0.0
2018-Jun-18 00:30N 40°41' W 074°09'0 0.0
2018-Jun-17 23:59N 40°41' W 074°08'1 2.4
2018-Jun-17 23:29N 40°42' W 074°09'0 0.0
2018-Jun-17 23:00N 40°42' W 074°09'0 0.0
2018-Jun-17 22:30N 40°42' W 074°09'0 0.0
2018-Jun-17 21:59N 40°42' W 074°09'0 0.0
2018-Jun-17 21:29N 40°42' W 074°09'0 0.0
2018-Jun-17 21:00N 40°42' W 074°09'0 0.0
2018-Jun-17 20:30N 40°42' W 074°09'0 0.0
2018-Jun-17 20:00N 40°42' W 074°09'0 0.0
2018-Jun-17 19:30N 40°42' W 074°09'0 0.0
2018-Jun-17 19:00N 40°42' W 074°09'0 0.0
2018-Jun-17 18:30N 40°42' W 074°09'0 0.0
2018-Jun-17 18:00N 40°42' W 074°09'0 0.0
2018-Jun-17 17:30N 40°42' W 074°09'0 0.0
2018-Jun-17 17:00N 40°42' W 074°09'0 0.0
2018-Jun-17 16:30N 40°42' W 074°09'0 0.0
2018-Jun-17 16:00N 40°42' W 074°09'0 0.0
2018-Jun-17 15:29N 40°42' W 074°09'0 0.0
2018-Jun-17 15:00N 40°42' W 074°09'0 0.0
2018-Jun-17 14:29N 40°42' W 074°09'0 0.0
2018-Jun-17 14:00N 40°42' W 074°09'0 0.0
2018-Jun-17 13:30N 40°42' W 074°09'0 0.0
2018-Jun-17 13:00N 40°42' W 074°09'0 0.0
2018-Jun-17 12:27N 40°42' W 074°09'0 0.0
2018-Jun-17 12:00N 40°42' W 074°09'0 0.0
2018-Jun-17 11:30N 40°42' W 074°09'0 0.0
2018-Jun-17 10:59N 40°42' W 074°09'0 0.0
2018-Jun-17 10:30N 40°42' W 074°09'0 0.0
2018-Jun-17 09:57N 40°42' W 074°09'0 0.0
2018-Jun-17 09:30N 40°42' W 074°09'0 0.0
2018-Jun-17 09:00N 40°42' W 074°09'0 0.0
2018-Jun-17 08:30N 40°42' W 074°09'0 0.0
2018-Jun-17 08:00N 40°42' W 074°09'0 0.0
2018-Jun-17 07:30N 40°42' W 074°09'0 0.0
2018-Jun-17 07:00N 40°42' W 074°09'0 0.0
2018-Jun-17 06:30N 40°42' W 074°09'0 0.0
2018-Jun-17 06:00N 40°42' W 074°09'0 0.0
2018-Jun-17 05:30N 40°42' W 074°09'0 0.0
2018-Jun-17 05:00N 40°42' W 074°09'0 0.0
2018-Jun-17 04:30N 40°42' W 074°09'0 0.0
2018-Jun-17 04:00N 40°42' W 074°09'0 0.0
2018-Jun-17 03:30N 40°42' W 074°09'0 0.0
2018-Jun-17 03:00N 40°42' W 074°09'0 0.0
2018-Jun-17 02:30N 40°42' W 074°09'0 0.0
2018-Jun-17 02:00N 40°42' W 074°09'0 0.0
2018-Jun-17 01:30N 40°42' W 074°09'0 0.0
2018-Jun-17 01:00N 40°42' W 074°09'0 0.0
2018-Jun-17 00:29N 40°42' W 074°09'0 0.0
2018-Jun-17 00:00N 40°42' W 074°09'0 0.0
2018-Jun-16 23:30N 40°42' W 074°09'0 0.0
2018-Jun-16 23:00N 40°42' W 074°09'0 0.0
2018-Jun-16 22:27N 40°42' W 074°09'0 0.0
2018-Jun-16 21:59N 40°42' W 074°09'0 0.0
2018-Jun-16 21:28N 40°42' W 074°09'0 0.0
2018-Jun-16 20:59N 40°42' W 074°09'0 0.0
2018-Jun-16 20:24N 40°42' W 074°09'0 0.0
2018-Jun-16 20:00N 40°42' W 074°09'0 0.0
2018-Jun-16 19:29N 40°42' W 074°09'0 0.0
2018-Jun-16 19:00N 40°42' W 074°09'1 1.9
2018-Jun-16 18:30N 40°41' W 074°08'1 1.1
2018-Jun-16 17:59N 40°41' W 074°08'1 2.1
2018-Jun-16 17:30N 40°40' W 074°08'1 2.8
2018-Jun-16 17:00N 40°39' W 074°09'3 5.2
2018-Jun-16 16:30N 40°39' W 074°05'2 4.9
2018-Jun-16 16:00N 40°41' W 074°03'2 4.7
2018-Jun-16 15:30N 40°43' W 074°02'2 4.6
2018-Jun-16 15:00N 40°45' W 074°01'2 4.5
2018-Jun-16 14:30N 40°47' W 073°60'0 0.0
2018-Jun-15 04:09N 40°47' W 073°59'1 8.8
2018-Jun-15 04:00N 40°46' W 074°00'4 8.3
2018-Jun-15 03:30N 40°42' W 074°02'4 7.4
2018-Jun-15 03:00N 40°39' W 074°05'3 6.5
2018-Jun-15 02:30N 40°39' W 074°09'3 2.7
2018-Jun-15 01:27N 40°42' W 074°09'0 0.0
2018-Jun-15 01:00N 40°42' W 074°09'0 0.0
2018-Jun-15 00:28N 40°42' W 074°09'0 0.0
2018-Jun-14 23:40N 40°42' W 074°09'0 0.0
2018-Jun-14 23:23N 40°42' W 074°09'0 0.0
2018-Jun-14 22:57N 40°42' W 074°09'0 0.0
2018-Jun-14 22:15N 40°42' W 074°09'0 0.0
2018-Jun-14 21:58N 40°42' W 074°09'0 0.0
2018-Jun-14 21:30N 40°42' W 074°09'0 0.0
2018-Jun-14 20:58N 40°42' W 074°09'0 0.0
2018-Jun-14 20:23N 40°42' W 074°09'0 0.0
2018-Jun-14 19:56N 40°42' W 074°09'1 1.6
2018-Jun-14 19:30N 40°42' W 074°08'0 0.2
2018-Jun-14 19:00N 40°42' W 074°08'0 0.1
2018-Jun-14 18:30N 40°42' W 074°08'0 0.0
2018-Jun-14 18:00N 40°41' W 074°08'0 0.0
2018-Jun-14 17:30N 40°42' W 074°08'0 0.0
2018-Jun-14 17:00N 40°42' W 074°08'0 0.0
2018-Jun-14 16:30N 40°42' W 074°08'0 0.0
2018-Jun-14 16:00N 40°42' W 074°08'0 0.0
2018-Jun-14 15:30N 40°42' W 074°08'0 0.0
2018-Jun-14 15:00N 40°42' W 074°08'0 0.0
2018-Jun-14 14:30N 40°42' W 074°08'0 0.0
2018-Jun-14 14:00N 40°42' W 074°08'0 0.0
2018-Jun-14 13:30N 40°41' W 074°08'0 0.0
2018-Jun-14 13:00N 40°42' W 074°08'0 0.0
2018-Jun-14 12:30N 40°42' W 074°08'0 0.0
2018-Jun-14 12:00N 40°42' W 074°08'0 0.1
2018-Jun-14 11:30N 40°41' W 074°08'0 0.0
2018-Jun-14 11:00N 40°41' W 074°08'0 0.0
2018-Jun-14 10:30N 40°41' W 074°08'0 0.0
2018-Jun-14 10:00N 40°41' W 074°08'0 0.0
2018-Jun-14 09:30N 40°41' W 074°08'0 0.0
2018-Jun-14 09:00N 40°41' W 074°08'0 0.0
2018-Jun-14 08:30N 40°41' W 074°08'0 0.0
2018-Jun-14 07:59N 40°41' W 074°08'0 0.0
2018-Jun-14 07:30N 40°41' W 074°08'0 0.0
2018-Jun-14 07:00N 40°41' W 074°08'0 0.0
2018-Jun-14 06:30N 40°41' W 074°08'0 0.0
2018-Jun-14 06:00N 40°41' W 074°08'0 0.0
2018-Jun-14 05:30N 40°41' W 074°08'0 0.0
2018-Jun-14 05:00N 40°41' W 074°08'0 0.3
2018-Jun-14 04:30N 40°42' W 074°08'1 1.4
2018-Jun-14 04:00N 40°42' W 074°09'0 0.0
2018-Jun-14 03:30N 40°42' W 074°09'0 0.0
2018-Jun-14 03:00N 40°42' W 074°09'0 0.0
2018-Jun-14 02:30N 40°42' W 074°09'0 0.0
2018-Jun-14 02:00N 40°42' W 074°09'0 0.0
2018-Jun-14 01:30N 40°42' W 074°09'0 0.0
2018-Jun-14 01:00N 40°42' W 074°09'0 0.0
2018-Jun-14 00:30N 40°42' W 074°09'0 0.0
2018-Jun-14 00:00N 40°42' W 074°09'0 0.0
2018-Jun-13 23:30N 40°42' W 074°09'0 0.0
2018-Jun-13 23:00N 40°42' W 074°09'0 0.0
2018-Jun-13 22:30N 40°42' W 074°09'0 0.0
2018-Jun-13 22:00N 40°42' W 074°09'0 0.0
2018-Jun-13 21:30N 40°42' W 074°09'0 0.0
2018-Jun-13 21:00N 40°42' W 074°09'0 0.0
2018-Jun-13 20:30N 40°42' W 074°09'0 0.0
2018-Jun-13 20:00N 40°42' W 074°09'0 0.0
2018-Jun-13 19:30N 40°42' W 074°09'0 0.0
2018-Jun-13 15:02N 40°42' W 074°09'0 0.0
2018-Jun-13 14:04N 40°42' W 074°09'  
Track history (hours):
 
Tides and Currents Weather Stations Pressure Air Temp Water Temp Dewpoint Dewpoint Depression Visibility Wind Speed Wind Dir Waves Ship Positions

Mary Alice

Owner: Donjon Marine Co., Inc., HILLSIDE, NJ. More information available from US FCC via Universal Licensing System and Coast Guard Vessel Documentation Center.

Last reported at 2018-Jun-22 13:00 UTC. Time now 2018-Jun-22 13:17 UTC.
Position N 40°42' W 074°09'.

Length 21 m; draft 4.8 m.

Type: Towing. MMSI: 366744020.

Date/timePositionNaut miles runAvg speedWind from/ knotsBaromVisibWave heightAir tempDewpointWater temp
2018-Jun-22 13:00N 40°42' W 074°09'0 0.4
2018-Jun-22 12:30N 40°42' W 074°09'1 1.2
2018-Jun-22 12:00N 40°42' W 074°08'0 0.0
2018-Jun-22 11:30N 40°42' W 074°08'0 0.2
2018-Jun-22 11:00N 40°41' W 074°08'1 1.7
2018-Jun-22 10:30N 40°42' W 074°09'0 0.0
2018-Jun-22 10:00N 40°42' W 074°09'0 0.0
2018-Jun-22 09:30N 40°42' W 074°09'0 0.0
2018-Jun-22 09:00N 40°42' W 074°09'0 0.0
2018-Jun-22 08:30N 40°42' W 074°09'0 0.0
2018-Jun-22 08:00N 40°42' W 074°09'0 0.0
2018-Jun-22 07:30N 40°42' W 074°09'0 0.0
2018-Jun-22 07:00N 40°42' W 074°09'0 0.0
2018-Jun-22 06:30N 40°42' W 074°09'0 0.0
2018-Jun-22 06:00N 40°42' W 074°09'0 0.0
2018-Jun-22 05:30N 40°42' W 074°09'0 0.0
2018-Jun-22 04:59N 40°42' W 074°09'0 0.0
2018-Jun-22 04:29N 40°42' W 074°09'0 0.0
2018-Jun-22 04:00N 40°42' W 074°09'0 0.0
2018-Jun-22 03:30N 40°42' W 074°09'0 0.0
2018-Jun-22 03:00N 40°42' W 074°09'0 0.0
2018-Jun-22 02:30N 40°42' W 074°09'0 0.0
2018-Jun-22 02:00N 40°42' W 074°09'0 0.0
2018-Jun-22 01:30N 40°42' W 074°09'0 0.1
2018-Jun-22 01:00N 40°42' W 074°09'0 0.1
2018-Jun-22 00:23N 40°42' W 074°09'0 0.0
2018-Jun-22 00:00N 40°42' W 074°09'0 0.0
2018-Jun-21 23:28N 40°42' W 074°09'0 0.0
2018-Jun-21 22:59N 40°42' W 074°09'0 0.0
2018-Jun-21 22:30N 40°42' W 074°09'0 0.0
2018-Jun-21 22:00N 40°42' W 074°09'0 0.0
2018-Jun-21 21:30N 40°42' W 074°09'0 0.0
2018-Jun-21 21:00N 40°42' W 074°09'0 0.0
2018-Jun-21 20:30N 40°42' W 074°09'0 0.0
2018-Jun-21 20:00N 40°42' W 074°09'0 0.0
2018-Jun-21 19:30N 40°42' W 074°09'0 0.0
2018-Jun-21 19:00N 40°42' W 074°09'0 0.0
2018-Jun-21 18:30N 40°42' W 074°09'0 0.0
2018-Jun-21 18:00N 40°42' W 074°09'0 0.0
2018-Jun-21 17:30N 40°42' W 074°09'0 0.0
2018-Jun-21 16:59N 40°42' W 074°09'0 0.0
2018-Jun-21 16:30N 40°42' W 074°09'0 0.0
2018-Jun-21 16:00N 40°42' W 074°09'0 0.0
2018-Jun-21 15:25N 40°42' W 074°09'0 0.0
2018-Jun-21 15:00N 40°42' W 074°09'0 0.0
2018-Jun-21 14:21N 40°42' W 074°09'0 0.0
2018-Jun-21 13:59N 40°42' W 074°09'0 0.0
2018-Jun-21 13:30N 40°42' W 074°09'0 0.0
2018-Jun-21 12:53N 40°42' W 074°09'0 0.0
2018-Jun-21 12:30N 40°42' W 074°09'0 0.0
2018-Jun-21 12:00N 40°42' W 074°09'1 1.0
2018-Jun-21 11:29N 40°42' W 074°09'3 6.3
2018-Jun-21 11:00N 40°39' W 074°10'2 3.6
2018-Jun-21 10:30N 40°39' W 074°07'1 2.4
2018-Jun-21 10:00N 40°38' W 074°09'2 4.2
2018-Jun-21 09:30N 40°41' W 074°08'0 0.1
2018-Jun-21 09:00N 40°41' W 074°08'1 2.3
2018-Jun-21 08:30N 40°42' W 074°08'1 1.2
2018-Jun-21 08:00N 40°42' W 074°09'1 1.7
2018-Jun-21 07:30N 40°41' W 074°08'0 0.1
2018-Jun-21 07:00N 40°41' W 074°08'2 4.2
2018-Jun-21 06:30N 40°39' W 074°09'2 4.3
2018-Jun-21 06:00N 40°39' W 074°06'3 5.3
2018-Jun-21 05:29N 40°37' W 074°03'3 5.7
2018-Jun-21 05:00N 40°35' W 074°02'25 5.6
2018-Jun-21 00:31N 40°31' W 073°29'0 6.1
2018-Jun-21 00:30N 40°31' W 073°29'3 6.1
2018-Jun-20 23:59N 40°32' W 073°25'28 1.0
2018-Jun-19 21:18N 40°32' W 074°01'3 7.6
2018-Jun-19 20:56N 40°35' W 074°02'3 6.7
2018-Jun-19 20:30N 40°38' W 074°03'3 6.3
2018-Jun-19 20:00N 40°39' W 074°07'2 4.8
2018-Jun-19 19:30N 40°41' W 074°08'1 1.2
2018-Jun-19 19:00N 40°41' W 074°08'0 0.0
2018-Jun-19 18:30N 40°41' W 074°08'0 0.0
2018-Jun-19 18:00N 40°41' W 074°08'0 0.0
2018-Jun-19 17:30N 40°41' W 074°08'0 0.0
2018-Jun-19 17:00N 40°41' W 074°08'0 0.0
2018-Jun-19 16:30N 40°41' W 074°08'0 0.0
2018-Jun-19 16:00N 40°41' W 074°08'0 0.0
2018-Jun-19 15:30N 40°41' W 074°08'0 0.1
2018-Jun-19 15:00N 40°41' W 074°08'0 0.0
2018-Jun-19 14:30N 40°41' W 074°08'0 0.0
2018-Jun-19 13:55N 40°41' W 074°08'0 0.0
2018-Jun-19 13:29N 40°41' W 074°08'0 0.0
2018-Jun-19 13:00N 40°41' W 074°08'1 1.0
2018-Jun-19 12:27N 40°42' W 074°09'1 1.2
2018-Jun-19 12:00N 40°41' W 074°08'0 0.0
2018-Jun-19 11:30N 40°41' W 074°08'0 1.0
2018-Jun-19 11:00N 40°42' W 074°09'0 0.7
2018-Jun-19 10:30N 40°42' W 074°09'0 0.0
2018-Jun-19 09:58N 40°42' W 074°09'0 0.0
2018-Jun-19 09:29N 40°42' W 074°09'0 0.0
2018-Jun-19 09:00N 40°42' W 074°09'0 0.0
2018-Jun-19 08:30N 40°42' W 074°09'0 0.0
2018-Jun-19 08:00N 40°42' W 074°09'0 0.0
2018-Jun-19 07:30N 40°42' W 074°09'0 0.0
2018-Jun-19 07:00N 40°42' W 074°09'0 0.0
2018-Jun-19 06:30N 40°42' W 074°09'0 0.0
2018-Jun-19 06:00N 40°42' W 074°09'0 0.0
2018-Jun-19 05:30N 40°42' W 074°09'0 0.0
2018-Jun-19 05:00N 40°42' W 074°09'0 0.0
2018-Jun-19 04:30N 40°42' W 074°09'0 0.0
2018-Jun-19 04:00N 40°42' W 074°09'0 0.0
2018-Jun-19 03:30N 40°42' W 074°09'0 0.0
2018-Jun-19 03:00N 40°42' W 074°09'0 0.0
2018-Jun-19 02:24N 40°42' W 074°09'0 0.0
2018-Jun-19 01:24N 40°42' W 074°09'0 0.0
2018-Jun-19 01:00N 40°42' W 074°09'0 0.0
2018-Jun-19 00:29N 40°42' W 074°09'0 0.0
2018-Jun-18 23:59N 40°42' W 074°09'0 0.0
2018-Jun-18 23:30N 40°42' W 074°09'0 0.0
2018-Jun-18 23:00N 40°42' W 074°09'0 0.0
2018-Jun-18 22:20N 40°42' W 074°09'0 0.6
2018-Jun-18 22:00N 40°42' W 074°09'1 1.2
2018-Jun-18 21:26N 40°41' W 074°08'0 0.0
2018-Jun-18 21:00N 40°41' W 074°08'0 0.0
2018-Jun-18 20:28N 40°41' W 074°08'0 0.0
2018-Jun-18 20:00N 40°41' W 074°08'0 0.0
2018-Jun-18 19:30N 40°41' W 074°08'0 0.0
2018-Jun-18 18:58N 40°41' W 074°08'0 0.0
2018-Jun-18 18:30N 40°41' W 074°08'0 0.5
2018-Jun-18 18:00N 40°42' W 074°08'0 1.0
2018-Jun-18 17:30N 40°42' W 074°09'0 0.0
2018-Jun-18 16:58N 40°42' W 074°09'0 0.1
2018-Jun-18 16:30N 40°42' W 074°09'0 0.0
2018-Jun-18 16:00N 40°42' W 074°09'0 0.0
2018-Jun-18 15:30N 40°42' W 074°09'0 0.0
2018-Jun-18 14:58N 40°42' W 074°09'0 0.0
2018-Jun-18 14:08N 40°42' W 074°09'0 0.0
2018-Jun-18 12:53N 40°42' W 074°09'0 0.0
2018-Jun-18 12:25N 40°42' W 074°09'0 0.0
2018-Jun-18 12:00N 40°42' W 074°09'0 0.0
2018-Jun-18 11:20N 40°42' W 074°09'0 0.0
2018-Jun-18 10:53N 40°42' W 074°09'0 0.0
2018-Jun-18 10:24N 40°42' W 074°09'0 0.0
2018-Jun-18 10:00N 40°42' W 074°09'0 0.0
2018-Jun-18 09:31N 40°42' W 074°09'0 0.0
2018-Jun-18 08:49N 40°42' W 074°09'0 0.0
2018-Jun-18 08:29N 40°42' W 074°09'0 0.0
2018-Jun-18 08:00N 40°42' W 074°09'0 0.0
2018-Jun-18 07:30N 40°42' W 074°09'0 0.0
2018-Jun-18 06:59N 40°42' W 074°09'0 0.0
2018-Jun-18 06:29N 40°42' W 074°09'0 0.0
2018-Jun-18 05:59N 40°42' W 074°09'0 0.0
2018-Jun-18 05:29N 40°42' W 074°09'0 0.0
2018-Jun-18 05:00N 40°42' W 074°09'0 0.0
2018-Jun-18 04:28N 40°42' W 074°09'0 0.0
2018-Jun-18 03:59N 40°42' W 074°09'0 0.0
2018-Jun-18 03:28N 40°42' W 074°09'0 0.0
2018-Jun-18 03:00N 40°42' W 074°09'0 0.0
2018-Jun-18 02:27N 40°42' W 074°09'0 0.0
2018-Jun-18 02:00N 40°42' W 074°09'1 1.7
2018-Jun-18 01:29N 40°41' W 074°08'0 0.9
2018-Jun-18 01:00N 40°41' W 074°08'0 0.0
2018-Jun-18 00:30N 40°41' W 074°09'0 0.0
2018-Jun-17 23:59N 40°41' W 074°08'1 2.4
2018-Jun-17 23:29N 40°42' W 074°09'0 0.0
2018-Jun-17 23:00N 40°42' W 074°09'0 0.0
2018-Jun-17 22:30N 40°42' W 074°09'0 0.0
2018-Jun-17 21:59N 40°42' W 074°09'0 0.0
2018-Jun-17 21:29N 40°42' W 074°09'0 0.0
2018-Jun-17 21:00N 40°42' W 074°09'0 0.0
2018-Jun-17 20:30N 40°42' W 074°09'0 0.0
2018-Jun-17 20:00N 40°42' W 074°09'0 0.0
2018-Jun-17 19:30N 40°42' W 074°09'0 0.0
2018-Jun-17 19:00N 40°42' W 074°09'0 0.0
2018-Jun-17 18:30N 40°42' W 074°09'0 0.0
2018-Jun-17 18:00N 40°42' W 074°09'0 0.0
2018-Jun-17 17:30N 40°42' W 074°09'0 0.0
2018-Jun-17 17:00N 40°42' W 074°09'0 0.0
2018-Jun-17 16:30N 40°42' W 074°09'0 0.0
2018-Jun-17 16:00N 40°42' W 074°09'0 0.0
2018-Jun-17 15:29N 40°42' W 074°09'0 0.0
2018-Jun-17 15:00N 40°42' W 074°09'0 0.0
2018-Jun-17 14:29N 40°42' W 074°09'0 0.0
2018-Jun-17 14:00N 40°42' W 074°09'0 0.0
2018-Jun-17 13:30N 40°42' W 074°09'0 0.0
2018-Jun-17 13:00N 40°42' W 074°09'0 0.0
2018-Jun-17 12:27N 40°42' W 074°09'0 0.0
2018-Jun-17 12:00N 40°42' W 074°09'0 0.0
2018-Jun-17 11:30N 40°42' W 074°09'0 0.0
2018-Jun-17 10:59N 40°42' W 074°09'0 0.0
2018-Jun-17 10:30N 40°42' W 074°09'0 0.0
2018-Jun-17 09:57N 40°42' W 074°09'0 0.0
2018-Jun-17 09:30N 40°42' W 074°09'0 0.0
2018-Jun-17 09:00N 40°42' W 074°09'0 0.0
2018-Jun-17 08:30N 40°42' W 074°09'0 0.0
2018-Jun-17 08:00N 40°42' W 074°09'0 0.0
2018-Jun-17 07:30N 40°42' W 074°09'0 0.0
2018-Jun-17 07:00N 40°42' W 074°09'0 0.0
2018-Jun-17 06:30N 40°42' W 074°09'0 0.0
2018-Jun-17 06:00N 40°42' W 074°09'0 0.0
2018-Jun-17 05:30N 40°42' W 074°09'0 0.0
2018-Jun-17 05:00N 40°42' W 074°09'0 0.0
2018-Jun-17 04:30N 40°42' W 074°09'0 0.0
2018-Jun-17 04:00N 40°42' W 074°09'0 0.0
2018-Jun-17 03:30N 40°42' W 074°09'0 0.0
2018-Jun-17 03:00N 40°42' W 074°09'0 0.0
2018-Jun-17 02:30N 40°42' W 074°09'0 0.0
2018-Jun-17 02:00N 40°42' W 074°09'0 0.0
2018-Jun-17 01:30N 40°42' W 074°09'0 0.0
2018-Jun-17 01:00N 40°42' W 074°09'0 0.0
2018-Jun-17 00:29N 40°42' W 074°09'0 0.0
2018-Jun-17 00:00N 40°42' W 074°09'0 0.0
2018-Jun-16 23:30N 40°42' W 074°09'0 0.0
2018-Jun-16 23:00N 40°42' W 074°09'0 0.0
2018-Jun-16 22:27N 40°42' W 074°09'0 0.0
2018-Jun-16 21:59N 40°42' W 074°09'0 0.0
2018-Jun-16 21:28N 40°42' W 074°09'0 0.0
2018-Jun-16 20:59N 40°42' W 074°09'0 0.0
2018-Jun-16 20:24N 40°42' W 074°09'0 0.0
2018-Jun-16 20:00N 40°42' W 074°09'0 0.0
2018-Jun-16 19:29N 40°42' W 074°09'0 0.0
2018-Jun-16 19:00N 40°42' W 074°09'1 1.9
2018-Jun-16 18:30N 40°41' W 074°08'1 1.1
2018-Jun-16 17:59N 40°41' W 074°08'1 2.1
2018-Jun-16 17:30N 40°40' W 074°08'1 2.8
2018-Jun-16 17:00N 40°39' W 074°09'3 5.2
2018-Jun-16 16:30N 40°39' W 074°05'2 4.9
2018-Jun-16 16:00N 40°41' W 074°03'2 4.7
2018-Jun-16 15:30N 40°43' W 074°02'2 4.6
2018-Jun-16 15:00N 40°45' W 074°01'2 4.5
2018-Jun-16 14:30N 40°47' W 073°60'0 0.0
2018-Jun-15 04:09N 40°47' W 073°59'1 8.8
2018-Jun-15 04:00N 40°46' W 074°00'4 8.3
2018-Jun-15 03:30N 40°42' W 074°02'4 7.4
2018-Jun-15 03:00N 40°39' W 074°05'3 6.5
2018-Jun-15 02:30N 40°39' W 074°09'3 2.7
2018-Jun-15 01:27N 40°42' W 074°09'0 0.0
2018-Jun-15 01:00N 40°42' W 074°09'0 0.0
2018-Jun-15 00:28N 40°42' W 074°09'0 0.0
2018-Jun-14 23:40N 40°42' W 074°09'0 0.0
2018-Jun-14 23:23N 40°42' W 074°09'0 0.0
2018-Jun-14 22:57N 40°42' W 074°09'0 0.0
2018-Jun-14 22:15N 40°42' W 074°09'0 0.0
2018-Jun-14 21:58N 40°42' W 074°09'0 0.0
2018-Jun-14 21:30N 40°42' W 074°09'0 0.0
2018-Jun-14 20:58N 40°42' W 074°09'0 0.0
2018-Jun-14 20:23N 40°42' W 074°09'0 0.0
2018-Jun-14 19:56N 40°42' W 074°09'1 1.6
2018-Jun-14 19:30N 40°42' W 074°08'0 0.2
2018-Jun-14 19:00N 40°42' W 074°08'0 0.1
2018-Jun-14 18:30N 40°42' W 074°08'0 0.0
2018-Jun-14 18:00N 40°41' W 074°08'0 0.0
2018-Jun-14 17:30N 40°42' W 074°08'0 0.0
2018-Jun-14 17:00N 40°42' W 074°08'0 0.0
2018-Jun-14 16:30N 40°42' W 074°08'0 0.0
2018-Jun-14 16:00N 40°42' W 074°08'0 0.0
2018-Jun-14 15:30N 40°42' W 074°08'0 0.0
2018-Jun-14 15:00N 40°42' W 074°08'0 0.0
2018-Jun-14 14:30N 40°42' W 074°08'0 0.0
2018-Jun-14 14:00N 40°42' W 074°08'0 0.0
2018-Jun-14 13:30N 40°41' W 074°08'0 0.0
2018-Jun-14 13:00N 40°42' W 074°08'0 0.0
2018-Jun-14 12:30N 40°42' W 074°08'0 0.0
2018-Jun-14 12:00N 40°42' W 074°08'0 0.1
2018-Jun-14 11:30N 40°41' W 074°08'0 0.0
2018-Jun-14 11:00N 40°41' W 074°08'0 0.0
2018-Jun-14 10:30N 40°41' W 074°08'0 0.0
2018-Jun-14 10:00N 40°41' W 074°08'0 0.0
2018-Jun-14 09:30N 40°41' W 074°08'0 0.0
2018-Jun-14 09:00N 40°41' W 074°08'0 0.0
2018-Jun-14 08:30N 40°41' W 074°08'0 0.0
2018-Jun-14 07:59N 40°41' W 074°08'0 0.0
2018-Jun-14 07:30N 40°41' W 074°08'0 0.0
2018-Jun-14 07:00N 40°41' W 074°08'0 0.0
2018-Jun-14 06:30N 40°41' W 074°08'0 0.0
2018-Jun-14 06:00N 40°41' W 074°08'0 0.0
2018-Jun-14 05:30N 40°41' W 074°08'0 0.0
2018-Jun-14 05:00N 40°41' W 074°08'0 0.3
2018-Jun-14 04:30N 40°42' W 074°08'1 1.4
2018-Jun-14 04:00N 40°42' W 074°09'0 0.0
2018-Jun-14 03:30N 40°42' W 074°09'0 0.0
2018-Jun-14 03:00N 40°42' W 074°09'0 0.0
2018-Jun-14 02:30N 40°42' W 074°09'0 0.0
2018-Jun-14 02:00N 40°42' W 074°09'0 0.0
2018-Jun-14 01:30N 40°42' W 074°09'0 0.0
2018-Jun-14 01:00N 40°42' W 074°09'0 0.0
2018-Jun-14 00:30N 40°42' W 074°09'0 0.0
2018-Jun-14 00:00N 40°42' W 074°09'0 0.0
2018-Jun-13 23:30N 40°42' W 074°09'0 0.0
2018-Jun-13 23:00N 40°42' W 074°09'0 0.0
2018-Jun-13 22:30N 40°42' W 074°09'0 0.0
2018-Jun-13 22:00N 40°42' W 074°09'0 0.0
2018-Jun-13 21:30N 40°42' W 074°09'0 0.0
2018-Jun-13 21:00N 40°42' W 074°09'0 0.0
2018-Jun-13 20:30N 40°42' W 074°09'0 0.0
2018-Jun-13 20:00N 40°42' W 074°09'0 0.0
2018-Jun-13 19:30N 40°42' W 074°09'0 0.0
2018-Jun-13 15:02N 40°42' W 074°09'0 0.0
2018-Jun-13 14:04N 40°42' W 074°09'  

Dump ship's entire track history